メインページ
METAR-TAF:

METAR-TAF

空港 :

セロ・モレノ国際空港

アントファガスタ, チリ

緯度: 23-26S, 経度: 070-26W, 海抜: 135m

現時点の気象観測

当レポートは47分前の11:00(UTC)に作成
の風 4kt
気温 12°C
湿度 82%
気圧 1015 hPa
視程10km以上
高度1300ftの雲はほとんどない

METAR: SCFA 221100Z 08004KT 9999 FEW013 12/09 Q1015 NOSIG

時間: 07:47 (11:47 UTC)

予報

当レポートは11分前の11:36(UTC)に作成
予報は22日の 12時(UTC)から 23日の 12時(UTC)まで有効
の風 4kt
視程10km以上
高度1800ftの千切れ雲あり
22日の 14時(UTC)から 22日の 16時(UTC)まで徐々に
南/南西の風 14kt
高度2000ftの雲はほとんどない
23日の 00時(UTC)から 23日の 02時(UTC)まで徐々に
の風 4kt
23日の 05時(UTC)から 26日の 07時(UTC)まで徐々に
の風 4kt
23日の 10時(UTC)から 23日の 12時(UTC)まで徐々に
の風 4kt
高度2300ftの千切れ雲あり

TAF: SCFA 221136Z 2212/2312 18004KT 9999 BKN018 TX18/2218Z TN13/ 2306Z BECMG 2214/2216 21014KT FEW020 BECMG 2300/2302 17004KT BECMG 2305/2607 09004KT BECMG 2310/2312 36004KT BKN023

4,000以上の空港の気象観測と天気予報(METAR報とTAF報)

利用可能な観測所は地図上に黄色い丸と赤い丸で示す。

丸の上にカーソルを重ねると観測所名を参照できる。

次にクリックすると気象観測と天気予報を参照できる。

マップの切り替え:黒色「×」印の緑ボタンをクリックして拡大、「-」印の緑ボタンをクリックして縮小、緑色の三角印をクリックして隣りの地図に切り替え


METAR-TAF: